Time;durP1;ratioP1;P1;durP2;ratioP2;P2;SDS_P1;SDS_P2;PMS_P1;PMS_P2;Temp;Humidity;BMP_temperature;BMP_pressure;BME280_temperature;BME280_humidity;BME280_pressure;Samples;Min_cycle;Max_cycle;Signal;HPM_P1;HPM_P2
2021/08/24 00:00:29;;;;;;;0.40;0.30;;;15.70;99.90;;;;;;5034091;28;20402;-75
2021/08/24 00:02:56;;;;;;;0.40;0.20;;;15.60;99.90;;;;;;5046272;28;20419;-75
2021/08/24 00:05:26;;;;;;;0.40;0.30;;;15.70;99.90;;;;;;5053655;28;20377;-76
2021/08/24 00:07:53;;;;;;;0.40;0.20;;;15.50;99.90;;;;;;5053205;28;20725;-75
2021/08/24 00:10:20;;;;;;;0.40;0.20;;;15.60;99.90;;;;;;5053776;28;20405;-75
2021/08/24 00:12:45;;;;;;;0.40;0.20;;;15.70;99.90;;;;;;5053271;28;20385;-76
2021/08/24 00:15:12;;;;;;;0.40;0.30;;;15.70;99.90;;;;;;5053563;28;20381;-76
2021/08/24 00:17:37;;;;;;;0.40;0.20;;;15.70;99.90;;;;;;5053210;28;20382;-76
2021/08/24 00:20:04;;;;;;;0.40;0.30;;;15.70;99.90;;;;;;5054071;28;20904;-76
2021/08/24 00:22:29;;;;;;;0.40;0.20;;;15.80;99.90;;;;;;5053736;28;20393;-75
2021/08/24 00:24:55;;;;;;;0.40;0.30;;;15.80;99.90;;;;;;5035203;28;20447;-76
2021/08/24 00:27:20;;;;;;;0.40;0.20;;;15.80;99.90;;;;;;5053624;28;20880;-77
2021/08/24 00:29:46;;;;;;;0.40;0.30;;;15.80;99.90;;;;;;5050130;28;20785;-75
2021/08/24 00:32:12;;;;;;;0.40;0.20;;;15.90;99.90;;;;;;5033250;28;20429;-76
2021/08/24 00:34:37;;;;;;;0.40;0.30;;;15.80;99.90;;;;;;5032734;28;20430;-75
2021/08/24 00:37:03;;;;;;;0.40;0.30;;;15.90;99.90;;;;;;5033820;28;20394;-76
2021/08/24 00:39:29;;;;;;;0.40;0.30;;;15.90;99.90;;;;;;5033314;28;20874;-76
2021/08/24 00:41:54;;;;;;;0.40;0.20;;;15.90;99.90;;;;;;5032827;28;20387;-77
2021/08/24 00:44:20;;;;;;;0.40;0.30;;;15.90;99.90;;;;;;5033164;28;20799;-77
2021/08/24 00:46:49;;;;;;;0.40;0.20;;;15.90;99.90;;;;;;5032480;28;20395;-77
2021/08/24 00:49:24;;;;;;;0.40;0.20;;;16.00;99.90;;;;;;5033231;28;20375;-76
2021/08/24 00:51:59;;;;;;;0.40;0.20;;;15.90;99.90;;;;;;5032467;28;20753;-76
2021/08/24 00:54:26;;;;;;;0.40;0.20;;;15.90;99.90;;;;;;5033203;28;20387;-76
2021/08/24 00:56:57;;;;;;;0.40;0.20;;;15.90;99.90;;;;;;5032477;28;20423;-76
2021/08/24 00:59:23;;;;;;;0.40;0.20;;;15.90;99.90;;;;;;5045889;28;20401;-77
2021/08/24 01:01:50;;;;;;;0.40;0.20;;;15.90;99.90;;;;;;5050842;28;20865;-76
2021/08/24 01:04:16;;;;;;;0.40;0.20;;;15.90;99.90;;;;;;5052690;28;20381;-76
2021/08/24 01:07:03;;;;;;;0.40;0.20;;;16.00;99.90;;;;;;5031223;28;20396;-77
2021/08/24 01:09:42;;;;;;;0.40;0.20;;;16.10;99.90;;;;;;5032532;28;20440;-76
2021/08/24 01:12:27;;;;;;;0.40;0.30;;;16.00;99.90;;;;;;5032405;28;20411;-77
2021/08/24 01:14:58;;;;;;;0.40;0.20;;;16.00;99.90;;;;;;5031443;28;20426;-76
2021/08/24 01:17:35;;;;;;;0.40;0.20;;;16.00;99.90;;;;;;5032380;28;20478;-76
2021/08/24 01:20:29;;;;;;;0.40;0.25;;;16.10;99.90;;;;;;5031650;28;20372;-76
2021/08/24 01:22:57;;;;;;;0.40;0.20;;;16.20;99.90;;;;;;5031409;28;20411;-76
2021/08/24 01:25:31;;;;;;;0.40;0.30;;;16.40;99.90;;;;;;5031994;28;20387;-77
2021/08/24 01:28:05;;;;;;;0.40;0.20;;;16.50;99.90;;;;;;5048530;28;20397;-76
2021/08/24 01:31:04;;;;;;;0.40;0.20;;;16.70;99.90;;;;;;5035478;28;20445;-77
2021/08/24 01:33:36;;;;;;;0.40;0.30;;;16.70;99.90;;;;;;5032128;28;20387;-77
2021/08/24 01:36:09;;;;;;;0.40;0.30;;;16.80;99.90;;;;;;5029962;28;20411;-77
2021/08/24 01:39:13;;;;;;;0.40;0.30;;;16.90;99.90;;;;;;5032001;28;20387;-76
2021/08/24 01:41:54;;;;;;;0.40;0.30;;;16.90;99.90;;;;;;5022093;28;20856;-76
2021/08/24 01:44:22;;;;;;;0.40;0.20;;;16.80;99.90;;;;;;5032061;28;20394;-76
2021/08/24 01:47:05;;;;;;;0.40;0.20;;;16.80;99.90;;;;;;5013184;28;20911;-76
2021/08/24 01:49:42;;;;;;;0.40;0.20;;;16.90;99.90;;;;;;5031977;28;20456;-75
2021/08/24 01:52:11;;;;;;;0.40;0.30;;;17.00;99.90;;;;;;5031341;28;20460;-78
2021/08/24 01:55:06;;;;;;;0.40;0.30;;;17.00;99.90;;;;;;5036527;28;20823;-77
2021/08/24 01:57:38;;;;;;;0.40;0.30;;;17.10;99.90;;;;;;5049781;28;20433;-76
2021/08/24 02:00:11;;;;;;;0.40;0.30;;;17.20;99.90;;;;;;5050704;28;20373;-76
2021/08/24 02:02:41;;;;;;;0.40;0.30;;;17.30;99.90;;;;;;5051282;28;20385;-77
2021/08/24 02:05:39;;;;;;;0.40;0.20;;;17.30;99.90;;;;;;5051126;28;20373;-77
2021/08/24 02:08:10;;;;;;;0.40;0.30;;;17.30;99.90;;;;;;5027322;28;20404;-76
2021/08/24 02:10:36;;;;;;;0.40;0.20;;;17.30;99.90;;;;;;5031309;28;20402;-76
2021/08/24 02:13:03;;;;;;;0.40;0.20;;;17.30;99.90;;;;;;5029617;28;20396;-74
2021/08/24 02:15:43;;;;;;;0.40;0.30;;;17.30;99.90;;;;;;5013266;28;20387;-75
2021/08/24 02:18:15;;;;;;;0.40;0.30;;;17.30;99.90;;;;;;5031546;28;20454;-77
2021/08/24 02:21:00;;;;;;;0.40;0.30;;;17.30;99.90;;;;;;5048307;28;20912;-78
2021/08/24 02:23:29;;;;;;;0.40;0.30;;;17.30;99.90;;;;;;5039729;28;20421;-77
2021/08/24 02:25:58;;;;;;;0.40;0.20;;;17.30;99.90;;;;;;5012621;28;20549;-76
2021/08/24 02:28:42;;;;;;;0.40;0.20;;;17.30;99.90;;;;;;5031185;28;20716;-77
2021/08/24 02:31:22;;;;;;;0.40;0.20;;;17.30;99.90;;;;;;5025903;28;20895;-77
2021/08/24 02:33:56;;;;;;;0.40;0.30;;;17.30;99.90;;;;;;5030678;28;20455;-77
2021/08/24 02:36:23;;;;;;;0.40;0.30;;;17.30;99.90;;;;;;5031188;28;20383;-75
2021/08/24 02:39:10;;;;;;;0.40;0.20;;;17.30;99.90;;;;;;5029671;28;20418;-76
2021/08/24 02:41:56;;;;;;;0.40;0.30;;;17.30;99.90;;;;;;5030992;28;20387;-77
2021/08/24 02:44:28;;;;;;;0.40;0.30;;;17.20;99.90;;;;;;5030880;28;20415;-77
2021/08/24 02:46:54;;;;;;;0.40;0.20;;;17.20;99.90;;;;;;5028831;28;20391;-77
2021/08/24 02:49:24;;;;;;;0.40;0.20;;;17.10;99.90;;;;;;5030958;28;20391;-76
2021/08/24 02:51:51;;;;;;;0.40;0.30;;;17.10;99.90;;;;;;5042734;28;20831;-78
2021/08/24 02:54:20;;;;;;;0.40;0.20;;;17.10;99.90;;;;;;5049222;28;20401;-76
2021/08/24 02:56:46;;;;;;;0.40;0.27;;;17.00;99.90;;;;;;5049935;28;20378;-76
2021/08/24 02:59:12;;;;;;;0.40;0.23;;;17.00;99.90;;;;;;5049679;28;20537;-77
2021/08/24 03:01:38;;;;;;;0.40;0.30;;;16.90;99.90;;;;;;5048313;28;20543;-77
2021/08/24 03:04:06;;;;;;;0.40;0.20;;;16.90;99.90;;;;;;5049369;28;20450;-78
2021/08/24 03:06:35;;;;;;;0.40;0.20;;;16.90;99.90;;;;;;5049529;28;20405;-78
2021/08/24 03:09:01;;;;;;;0.40;0.30;;;16.80;99.90;;;;;;5033984;28;20392;-76
2021/08/24 03:11:32;;;;;;;0.40;0.30;;;16.80;99.90;;;;;;5050484;28;20452;-82
2021/08/24 03:14:06;;;;;;;0.40;0.25;;;16.80;99.90;;;;;;5049572;28;20421;-76
2021/08/24 03:16:39;;;;;;;0.40;0.30;;;16.70;99.90;;;;;;5050602;28;20734;-75
2021/08/24 03:19:13;;;;;;;0.40;0.30;;;16.50;99.90;;;;;;5043747;28;20391;-76
2021/08/24 03:21:40;;;;;;;0.40;0.20;;;16.60;99.90;;;;;;5030414;28;20403;-77
2021/08/24 03:24:11;;;;;;;0.40;0.30;;;16.50;99.90;;;;;;5029728;28;20379;-77
2021/08/24 03:26:42;;;;;;;0.40;0.20;;;16.50;99.90;;;;;;5034102;28;20375;-79
2021/08/24 03:29:10;;;;;;;0.40;0.30;;;16.50;99.90;;;;;;5016244;28;20390;-76
2021/08/24 03:31:38;;;;;;;0.40;0.30;;;16.50;99.90;;;;;;5034264;28;20899;-79
2021/08/24 03:34:04;;;;;;;0.40;0.30;;;16.50;99.90;;;;;;5033847;28;20664;-78
2021/08/24 03:36:30;;;;;;;0.40;0.20;;;16.50;99.90;;;;;;5034451;28;20383;-79
2021/08/24 03:38:56;;;;;;;0.40;0.30;;;16.50;99.90;;;;;;5034005;28;20457;-77
2021/08/24 03:41:22;;;;;;;0.40;0.20;;;16.50;99.90;;;;;;5034455;28;20390;-77
2021/08/24 03:43:47;;;;;;;0.40;0.30;;;16.40;99.90;;;;;;5033776;28;20383;-77
2021/08/24 03:46:13;;;;;;;0.40;0.30;;;16.40;99.90;;;;;;5034214;28;20887;-77
2021/08/24 03:48:38;;;;;;;0.40;0.20;;;16.40;99.90;;;;;;5050712;28;20389;-77
2021/08/24 03:51:04;;;;;;;0.40;0.30;;;16.40;99.90;;;;;;5053694;28;20680;-77
2021/08/24 03:53:32;;;;;;;0.40;0.20;;;16.30;99.90;;;;;;5054189;28;20916;-76
2021/08/24 03:55:58;;;;;;;0.40;0.30;;;16.20;99.90;;;;;;5053693;28;20468;-77
2021/08/24 03:58:23;;;;;;;0.40;0.30;;;16.00;99.90;;;;;;5053871;28;20428;-77
2021/08/24 04:00:49;;;;;;;0.40;0.20;;;16.10;99.90;;;;;;5033477;28;20963;-75
2021/08/24 04:03:15;;;;;;;0.40;0.20;;;16.10;99.90;;;;;;5034085;28;20452;-77
2021/08/24 04:05:41;;;;;;;0.40;0.20;;;15.90;99.90;;;;;;5034128;28;20740;-77
2021/08/24 04:08:07;;;;;;;0.40;0.20;;;15.80;99.90;;;;;;5033322;28;20379;-76
2021/08/24 04:10:32;;;;;;;0.40;0.20;;;15.90;99.90;;;;;;5034063;28;20497;-76
2021/08/24 04:12:58;;;;;;;0.40;0.20;;;15.70;99.90;;;;;;5033325;28;20395;-76
2021/08/24 04:15:24;;;;;;;0.40;0.20;;;15.70;99.90;;;;;;5034067;28;20394;-76
2021/08/24 04:17:49;;;;;;;0.40;0.30;;;15.70;99.90;;;;;;5033185;28;20439;-76
2021/08/24 04:20:16;;;;;;;0.40;0.20;;;15.70;99.90;;;;;;5033866;28;20390;-77
2021/08/24 04:22:44;;;;;;;0.40;0.20;;;15.80;99.90;;;;;;5033710;28;20410;-77
2021/08/24 04:25:11;;;;;;;0.40;0.20;;;15.70;99.90;;;;;;5033152;28;20419;-77
2021/08/24 04:27:37;;;;;;;0.40;0.20;;;15.80;99.90;;;;;;5033701;28;20806;-77
2021/08/24 04:30:04;;;;;;;0.40;0.30;;;15.90;99.90;;;;;;5043397;28;20413;-77
2021/08/24 04:32:31;;;;;;;0.40;0.20;;;15.90;99.90;;;;;;5053479;28;20397;-76
2021/08/24 04:34:56;;;;;;;0.40;0.30;;;15.90;99.90;;;;;;5052695;28;20400;-76
2021/08/24 04:37:22;;;;;;;0.40;0.30;;;15.90;99.90;;;;;;5052183;28;20381;-76
2021/08/24 04:39:49;;;;;;;0.40;0.30;;;16.00;99.90;;;;;;5052858;28;20379;-75
2021/08/24 04:42:15;;;;;;;0.40;0.20;;;15.90;99.90;;;;;;5053275;28;20439;-76
2021/08/24 04:44:40;;;;;;;0.40;0.20;;;15.90;99.90;;;;;;5052191;28;20390;-76
2021/08/24 04:47:06;;;;;;;0.40;0.20;;;15.80;99.90;;;;;;5051821;28;20392;-80
2021/08/24 04:49:32;;;;;;;0.40;0.20;;;15.90;99.90;;;;;;5043285;28;20418;-76
2021/08/24 04:51:58;;;;;;;0.40;0.20;;;15.90;99.90;;;;;;5032000;28;20426;-77
2021/08/24 04:54:24;;;;;;;0.40;0.30;;;15.90;99.90;;;;;;5032659;28;20398;-76
2021/08/24 04:56:50;;;;;;;0.40;0.20;;;15.90;99.90;;;;;;5031978;28;20392;-75
2021/08/24 04:59:19;;;;;;;0.40;0.20;;;15.90;99.90;;;;;;5032085;28;20399;-78
2021/08/24 05:01:45;;;;;;;0.40;0.20;;;15.80;99.90;;;;;;5031409;28;20474;-79
2021/08/24 05:04:10;;;;;;;0.40;0.20;;;15.90;99.90;;;;;;5031807;28;20532;-78
2021/08/24 05:06:36;;;;;;;0.40;0.20;;;15.90;99.90;;;;;;5032233;28;20405;-78
2021/08/24 05:09:02;;;;;;;0.40;0.20;;;15.80;99.90;;;;;;5031583;28;20477;-78
2021/08/24 05:11:27;;;;;;;0.40;0.20;;;15.80;99.90;;;;;;5032377;28;20421;-76
2021/08/24 05:13:53;;;;;;;0.40;0.20;;;15.80;99.90;;;;;;5031514;28;20399;-76
2021/08/24 05:16:18;;;;;;;0.40;0.20;;;15.80;99.90;;;;;;5032278;28;20474;-79
2021/08/24 05:18:44;;;;;;;0.40;0.30;;;15.90;99.90;;;;;;5032129;28;20392;-77
2021/08/24 05:21:13;;;;;;;0.40;0.20;;;15.90;99.90;;;;;;5031637;28;20426;-78
2021/08/24 05:23:40;;;;;;;0.40;0.20;;;15.80;99.90;;;;;;5032277;28;20397;-77
2021/08/24 05:26:07;;;;;;;0.40;0.20;;;15.90;99.90;;;;;;5031461;28;20383;-79
2021/08/24 05:28:33;;;;;;;0.40;0.20;;;15.90;99.90;;;;;;5032477;28;20414;-77
2021/08/24 05:30:59;;;;;;;0.40;0.30;;;15.80;99.90;;;;;;5050610;28;20449;-77
2021/08/24 05:33:24;;;;;;;0.40;0.30;;;15.90;99.90;;;;;;5051430;28;20397;-75
2021/08/24 05:35:50;;;;;;;0.40;0.20;;;15.90;99.90;;;;;;5051510;28;20397;-78
2021/08/24 05:38:16;;;;;;;0.40;0.20;;;15.80;99.90;;;;;;5050850;28;20381;-78
2021/08/24 05:40:41;;;;;;;0.40;0.20;;;15.90;99.90;;;;;;5032094;28;20460;-79
2021/08/24 05:43:07;;;;;;;0.40;0.30;;;16.00;99.90;;;;;;5031107;28;20375;-78
2021/08/24 05:45:33;;;;;;;0.40;0.20;;;16.00;99.90;;;;;;5036606;28;20393;-79
2021/08/24 05:47:58;;;;;;;0.40;0.20;;;15.90;99.90;;;;;;5051293;28;20384;-79
2021/08/24 05:50:26;;;;;;;0.40;0.30;;;15.90;99.90;;;;;;5050359;28;20823;-77
2021/08/24 05:52:52;;;;;;;0.40;0.20;;;15.90;99.90;;;;;;5029085;28;20399;-77
2021/08/24 05:55:18;;;;;;;0.40;0.30;;;15.90;99.90;;;;;;5031123;28;20403;-78
2021/08/24 05:57:44;;;;;;;0.40;0.20;;;16.00;99.90;;;;;;5031767;28;20375;-76
2021/08/24 06:00:10;;;;;;;0.40;0.30;;;16.00;99.90;;;;;;5031269;28;20398;-78
2021/08/24 06:02:37;;;;;;;0.40;0.20;;;16.00;99.90;;;;;;5031892;28;20383;-78
2021/08/24 06:05:05;;;;;;;0.40;0.20;;;16.00;99.90;;;;;;5031150;28;20521;-77
2021/08/24 06:07:30;;;;;;;0.40;0.30;;;16.00;99.90;;;;;;5031823;28;20837;-77
2021/08/24 06:09:58;;;;;;;0.40;0.30;;;16.00;99.90;;;;;;5031180;28;20529;-78
2021/08/24 06:12:23;;;;;;;0.40;0.30;;;16.10;99.90;;;;;;5031626;28;20444;-78
2021/08/24 06:14:49;;;;;;;0.40;0.20;;;16.10;99.90;;;;;;5029973;28;20446;-77
2021/08/24 06:17:14;;;;;;;0.40;0.30;;;16.00;99.90;;;;;;5029163;28;20387;-79
2021/08/24 06:19:40;;;;;;;0.40;0.20;;;16.00;99.90;;;;;;5030906;28;20854;-78
2021/08/24 06:22:06;;;;;;;0.40;0.30;;;16.10;99.90;;;;;;5028522;28;20415;-77
2021/08/24 06:24:33;;;;;;;0.40;0.20;;;16.00;99.90;;;;;;5030784;28;20399;-77
2021/08/24 06:26:58;;;;;;;0.40;0.40;;;16.00;99.90;;;;;;5030827;28;20390;-77
2021/08/24 06:29:24;;;;;;;0.40;0.30;;;16.10;99.90;;;;;;5031640;28;20852;-79
2021/08/24 06:31:53;;;;;;;0.40;0.30;;;16.00;99.90;;;;;;5037018;28;20423;-77
2021/08/24 06:34:20;;;;;;;0.40;0.20;;;16.10;99.90;;;;;;5039123;28;20445;-79
2021/08/24 06:36:46;;;;;;;0.40;0.20;;;16.10;99.90;;;;;;5033261;28;20395;-79
2021/08/24 06:39:13;;;;;;;0.40;0.30;;;16.10;99.90;;;;;;5042496;28;20906;-77
2021/08/24 06:41:39;;;;;;;0.40;0.38;;;16.10;99.90;;;;;;5042482;28;20393;-80
2021/08/24 06:44:07;;;;;;;0.40;0.30;;;16.10;99.90;;;;;;5033634;28;20437;-77
2021/08/24 06:46:33;;;;;;;0.40;0.30;;;16.20;99.90;;;;;;5032356;28;20474;-77
2021/08/24 06:48:58;;;;;;;0.40;0.20;;;16.30;99.90;;;;;;5043616;28;20431;-77
2021/08/24 06:51:24;;;;;;;0.40;0.20;;;16.30;99.90;;;;;;5049163;28;20412;-78
2021/08/24 06:53:50;;;;;;;0.40;0.30;;;16.40;99.90;;;;;;5050819;28;20979;-78
2021/08/24 06:56:16;;;;;;;0.40;0.30;;;16.40;99.90;;;;;;5040430;28;20659;-79
2021/08/24 06:58:43;;;;;;;0.40;0.20;;;16.50;99.90;;;;;;5029950;28;20415;-80
2021/08/24 07:01:20;;;;;;;0.40;0.20;;;16.50;99.90;;;;;;5031964;28;20387;-76
2021/08/24 07:03:46;;;;;;;0.40;0.20;;;16.60;99.90;;;;;;5040199;28;20432;-77
2021/08/24 07:06:13;;;;;;;0.40;0.20;;;16.50;99.90;;;;;;5046164;28;20404;-77
2021/08/24 07:08:39;;;;;;;0.40;0.25;;;16.60;99.90;;;;;;5036522;28;20922;-77
2021/08/24 07:11:05;;;;;;;0.40;0.20;;;16.70;99.90;;;;;;5034455;28;20499;-78
2021/08/24 07:13:30;;;;;;;0.40;0.30;;;16.70;99.90;;;;;;5035089;28;20377;-78
2021/08/24 07:16:00;;;;;;;0.40;0.20;;;16.80;99.90;;;;;;5034978;28;20390;-80
2021/08/24 07:18:26;;;;;;;0.40;0.20;;;16.80;99.90;;;;;;5035351;28;20395;-78
2021/08/24 07:20:55;;;;;;;0.40;0.30;;;16.90;99.90;;;;;;5034501;28;20409;-79
2021/08/24 07:23:21;;;;;;;0.40;0.20;;;16.90;99.90;;;;;;5041449;28;20499;-76
2021/08/24 07:25:50;;;;;;;0.40;0.30;;;16.90;99.90;;;;;;5054097;28;20398;-77
2021/08/24 07:28:16;;;;;;;0.40;0.20;;;17.00;99.90;;;;;;5043553;28;20402;-78
2021/08/24 07:30:52;;;;;;;0.40;0.30;;;17.00;99.90;;;;;;5034461;28;20933;-79
2021/08/24 07:33:18;;;;;;;0.40;0.20;;;17.10;99.90;;;;;;5035595;28;20407;-76
2021/08/24 07:35:47;;;;;;;0.40;0.20;;;17.10;99.90;;;;;;5034168;28;20407;-79
2021/08/24 07:38:16;;;;;;;0.40;0.20;;;17.10;99.90;;;;;;5033470;28;20446;-78
2021/08/24 07:40:42;;;;;;;0.40;0.30;;;17.10;99.90;;;;;;5039046;28;20401;-74
2021/08/24 07:43:08;;;;;;;0.40;0.20;;;17.20;99.90;;;;;;5046853;28;20790;-75
2021/08/24 07:45:34;;;;;;;0.40;0.20;;;17.30;99.90;;;;;;5044301;28;20409;-74
2021/08/24 07:48:00;;;;;;;0.40;0.20;;;17.20;99.90;;;;;;5050886;28;20455;-75
2021/08/24 07:50:25;;;;;;;0.40;0.40;;;17.20;99.90;;;;;;5049179;28;20399;-74
2021/08/24 07:52:51;;;;;;;0.40;0.20;;;17.20;99.90;;;;;;5049882;28;20436;-75
2021/08/24 07:55:17;;;;;;;0.40;0.30;;;17.40;99.90;;;;;;5052217;28;20386;-75
2021/08/24 07:57:43;;;;;;;0.40;0.20;;;17.50;99.90;;;;;;5035058;28;20408;-75
2021/08/24 08:00:09;;;;;;;0.40;0.20;;;17.50;99.90;;;;;;5033019;28;20387;-75
2021/08/24 08:02:35;;;;;;;0.40;0.20;;;17.50;99.90;;;;;;5033940;28;20475;-74
2021/08/24 08:05:01;;;;;;;0.40;0.20;;;17.60;99.90;;;;;;5034309;28;20383;-75
2021/08/24 08:07:26;;;;;;;0.40;0.20;;;17.60;99.90;;;;;;5033246;28;20739;-75
2021/08/24 08:09:52;;;;;;;0.40;0.20;;;17.60;99.90;;;;;;5033848;28;20391;-75
2021/08/24 08:12:19;;;;;;;0.40;0.30;;;17.70;99.90;;;;;;5030651;28;20411;-74
2021/08/24 08:14:45;;;;;;;0.40;0.20;;;17.60;99.90;;;;;;5031401;28;20567;-74
2021/08/24 08:17:11;;;;;;;0.40;0.20;;;17.70;99.90;;;;;;5032382;28;20482;-75
2021/08/24 08:19:38;;;;;;;0.40;0.20;;;17.80;99.90;;;;;;5031096;28;20395;-74
2021/08/24 08:22:06;;;;;;;0.40;0.30;;;17.90;99.90;;;;;;5032727;28;20863;-74
2021/08/24 08:24:32;;;;;;;0.40;0.20;;;17.90;99.90;;;;;;5032783;28;20402;-74
2021/08/24 08:26:57;;;;;;;0.40;0.20;;;17.90;99.90;;;;;;5032941;28;20746;-74
2021/08/24 08:29:23;;;;;;;0.40;0.20;;;18.10;99.90;;;;;;5032239;28;20774;-74
2021/08/24 08:31:49;;;;;;;0.40;0.20;;;18.10;99.90;;;;;;5032474;28;20403;-74
2021/08/24 08:34:18;;;;;;;0.40;0.30;;;18.00;99.90;;;;;;5031496;28;20387;-75
2021/08/24 08:36:45;;;;;;;0.40;0.20;;;18.10;99.90;;;;;;5026569;28;20395;-74
2021/08/24 08:39:12;;;;;;;0.40;0.20;;;18.00;99.90;;;;;;5021517;28;20775;-74
2021/08/24 08:41:43;;;;;;;0.40;0.30;;;18.10;99.90;;;;;;5021502;28;20403;-74
2021/08/24 08:44:27;;;;;;;0.40;0.30;;;18.10;99.90;;;;;;5018699;28;20398;-74
2021/08/24 08:47:03;;;;;;;0.40;0.20;;;18.10;99.90;;;;;;5020392;28;20530;-75
2021/08/24 08:49:47;;;;;;;0.40;0.30;;;18.10;99.90;;;;;;5026502;28;20482;-74
2021/08/24 08:52:28;;;;;;;0.40;0.30;;;18.30;99.90;;;;;;5028261;28;20423;-74
2021/08/24 08:55:08;;;;;;;0.40;0.30;;;18.20;99.90;;;;;;5028359;28;20883;-73
2021/08/24 08:57:42;;;;;;;0.40;0.20;;;18.20;99.90;;;;;;5028520;28;20433;-74
2021/08/24 09:00:18;;;;;;;0.40;0.30;;;18.20;99.90;;;;;;5028550;28;20390;-74
2021/08/24 09:03:10;;;;;;;0.40;0.20;;;18.20;99.90;;;;;;5027147;28;20391;-75
2021/08/24 09:05:37;;;;;;;0.40;0.30;;;18.40;99.90;;;;;;5028794;28;20405;-74
2021/08/24 09:08:03;;;;;;;0.40;0.30;;;18.40;99.90;;;;;;5028961;28;20406;-75
2021/08/24 09:10:39;;;;;;;0.40;0.30;;;18.50;99.90;;;;;;5029013;28;20466;-75
2021/08/24 09:13:21;;;;;;;0.40;0.20;;;18.40;99.90;;;;;;5028905;28;20459;-74
2021/08/24 09:16:03;;;;;;;0.40;0.30;;;18.50;99.90;;;;;;5027468;28;20462;-75
2021/08/24 09:18:40;;;;;;;0.40;0.20;;;18.50;99.90;;;;;;5026407;28;20383;-75
2021/08/24 09:21:09;;;;;;;0.40;0.30;;;18.50;99.90;;;;;;5026629;28;20403;-73
2021/08/24 09:23:35;;;;;;;0.40;0.30;;;18.70;99.90;;;;;;5028635;28;20492;-74
2021/08/24 09:26:32;;;;;;;0.40;0.20;;;18.80;99.90;;;;;;5028962;28;20936;-75
2021/08/24 09:28:57;;;;;;;0.40;0.20;;;18.80;99.40;;;;;;5029040;28;20933;-75
2021/08/24 09:31:24;;;;;;;0.40;0.20;;;19.00;99.80;;;;;;5027742;28;20435;-75
2021/08/24 09:33:51;;;;;;;0.40;0.22;;;19.10;99.90;;;;;;5028119;28;20418;-75
2021/08/24 09:36:18;;;;;;;0.40;0.30;;;19.10;99.80;;;;;;5027636;28;20887;-74
2021/08/24 09:38:55;;;;;;;0.40;0.30;;;19.20;99.90;;;;;;5028080;28;20379;-74
2021/08/24 09:41:24;;;;;;;0.40;0.20;;;19.00;99.90;;;;;;5027853;28;20400;-76
2021/08/24 09:43:54;;;;;;;0.40;0.30;;;19.10;99.70;;;;;;5028168;28;20387;-75
2021/08/24 09:46:20;;;;;;;0.40;0.30;;;19.20;99.90;;;;;;5027646;28;20391;-74
2021/08/24 09:48:52;;;;;;;0.40;0.20;;;19.20;99.90;;;;;;5031592;28;20391;-74
2021/08/24 09:51:38;;;;;;;0.40;0.20;;;19.40;99.90;;;;;;5031100;28;20874;-75
2021/08/24 09:54:33;;;;;;;0.40;0.30;;;19.50;99.90;;;;;;5023642;28;20451;-74
2021/08/24 09:57:10;;;;;;;0.40;0.20;;;19.60;99.80;;;;;;5001941;28;20396;-75
2021/08/24 10:00:05;;;;;;;0.40;0.30;;;19.80;98.70;;;;;;5011019;28;20385;-75
2021/08/24 10:02:41;;;;;;;0.40;0.28;;;20.10;99.30;;;;;;5010408;28;20476;-73
2021/08/24 10:05:36;;;;;;;0.40;0.30;;;20.20;99.90;;;;;;5027878;28;20383;-75
2021/08/24 10:08:42;;;;;;;0.40;0.20;;;20.20;99.60;;;;;;5027507;28;20403;-74
2021/08/24 10:11:23;;;;;;;0.40;0.30;;;20.40;99.50;;;;;;5029764;28;20422;-76
2021/08/24 10:13:50;;;;;;;0.40;0.20;;;20.50;98.60;;;;;;5031052;28;20406;-74
2021/08/24 10:16:28;;;;;;;0.40;0.30;;;20.60;98.90;;;;;;5029990;28;20394;-76
2021/08/24 10:19:12;;;;;;;0.40;0.20;;;20.50;98.40;;;;;;5033048;28;20587;-76
2021/08/24 10:21:58;;;;;;;0.40;0.20;;;20.30;97.70;;;;;;5022573;28;20501;-75
2021/08/24 10:24:31;;;;;;;0.40;0.30;;;20.30;97.60;;;;;;5020656;28;20395;-73
2021/08/24 10:27:09;;;;;;;0.40;0.30;;;20.30;98.10;;;;;;5027699;28;20387;-73
2021/08/24 10:29:39;;;;;;;0.40;0.30;;;20.30;98.10;;;;;;5029495;28;20581;-73
2021/08/24 10:32:08;;;;;;;0.40;0.20;;;20.60;97.80;;;;;;5031753;28;20505;-73
2021/08/24 10:34:47;;;;;;;0.40;0.20;;;20.70;98.10;;;;;;5029252;28;20387;-73
2021/08/24 10:37:25;;;;;;;0.40;0.20;;;20.60;97.10;;;;;;5030635;28;20387;-75
2021/08/24 10:40:07;;;;;;;0.40;0.20;;;20.40;98.30;;;;;;5030755;28;20423;-73
2021/08/24 10:42:34;;;;;;;0.40;0.30;;;20.40;97.70;;;;;;5029989;28;20441;-73
2021/08/24 10:45:22;;;;;;;0.40;0.20;;;20.50;97.80;;;;;;5030638;28;20387;-73
2021/08/24 10:47:54;;;;;;;0.40;0.20;;;20.40;98.00;;;;;;5023499;28;20403;-71
2021/08/24 10:50:23;;;;;;;0.40;0.20;;;20.20;97.70;;;;;;5029684;28;20407;-73
2021/08/24 10:53:09;;;;;;;0.40;0.30;;;20.30;98.60;;;;;;5030258;28;20509;-71
2021/08/24 10:55:45;;;;;;;0.40;0.30;;;20.30;97.30;;;;;;5029771;28;20414;-70
2021/08/24 10:58:21;;;;;;;0.40;0.20;;;20.30;97.40;;;;;;5030905;28;20457;-72
2021/08/24 11:00:56;;;;;;;0.40;0.20;;;20.30;97.90;;;;;;5029907;28;20395;-71
2021/08/24 11:03:44;;;;;;;0.40;0.30;;;20.30;98.50;;;;;;5026982;28;20396;-71
2021/08/24 11:06:39;;;;;;;0.40;0.30;;;20.60;98.00;;;;;;5030275;28;20418;-71
2021/08/24 11:09:04;;;;;;;0.40;0.30;;;20.50;97.50;;;;;;5024404;28;20399;-71
2021/08/24 11:11:33;;;;;;;0.40;0.30;;;20.40;97.10;;;;;;5029265;28;20895;-72
2021/08/24 11:14:03;;;;;;;0.40;0.30;;;20.30;98.10;;;;;;5030581;28;20478;-72
2021/08/24 11:16:53;;;;;;;0.40;0.30;;;20.60;97.20;;;;;;5029467;28;20395;-72
2021/08/24 11:19:39;;;;;;;0.40;0.20;;;20.70;97.20;;;;;;5028645;28;20891;-72
2021/08/24 11:22:20;;;;;;;0.40;0.30;;;20.60;96.40;;;;;;5029468;28;20457;-73
2021/08/24 11:25:12;;;;;;;0.40;0.20;;;20.60;96.20;;;;;;5030366;28;20875;-72
2021/08/24 11:27:57;;;;;;;0.40;0.30;;;20.90;96.50;;;;;;5029236;28;20439;-72
2021/08/24 11:30:41;;;;;;;0.40;0.20;;;21.00;96.20;;;;;;5011995;28;20461;-73
2021/08/24 11:33:23;;;;;;;0.40;0.20;;;20.90;95.40;;;;;;5030356;28;20392;-73
2021/08/24 11:35:51;;;;;;;0.40;0.20;;;21.00;95.30;;;;;;5030706;28;20383;-72
2021/08/24 11:38:26;;;;;;;0.40;0.20;;;21.70;96.00;;;;;;5011672;28;20737;-73
2021/08/24 11:41:02;;;;;;;0.40;0.20;;;22.00;95.10;;;;;;5012887;28;20399;-71
2021/08/24 11:43:46;;;;;;;0.40;0.30;;;22.40;94.50;;;;;;5029358;28;20778;-75
2021/08/24 11:46:22;;;;;;;0.40;0.30;;;22.70;93.40;;;;;;5031352;28;20402;-70
2021/08/24 11:48:52;;;;;;;0.40;0.30;;;22.90;93.60;;;;;;5032921;28;20752;-71
2021/08/24 11:51:27;;;;;;;0.40;0.20;;;23.10;93.50;;;;;;5016462;28;20490;-73
2021/08/24 11:54:11;;;;;;;0.40;0.30;;;23.30;91.50;;;;;;5034306;28;20422;-71
2021/08/24 11:56:51;;;;;;;0.40;0.30;;;23.00;91.80;;;;;;5032932;28;20470;-71
2021/08/24 11:59:31;;;;;;;0.40;0.30;;;23.50;91.60;;;;;;5033574;28;20465;-73
2021/08/24 12:01:57;;;;;;;0.40;0.20;;;23.50;91.60;;;;;;5033710;28;20751;-71
2021/08/24 12:04:28;;;;;;;0.40;0.30;;;23.40;90.70;;;;;;5033042;28;20456;-71
2021/08/24 12:07:01;;;;;;;0.40;0.20;;;23.30;91.30;;;;;;5033868;28;20395;-72
2021/08/24 12:09:46;;;;;;;0.40;0.30;;;22.70;91.10;;;;;;5033180;28;20379;-72
2021/08/24 12:12:38;;;;;;;0.40;0.20;;;22.20;91.30;;;;;;5033611;28;20418;-71
2021/08/24 12:15:08;;;;;;;0.40;0.20;;;22.30;92.00;;;;;;5028735;28;20391;-71
2021/08/24 12:17:37;;;;;;;0.40;0.20;;;22.10;91.10;;;;;;5032794;28;20427;-71
2021/08/24 12:20:07;;;;;;;0.40;0.30;;;22.60;91.80;;;;;;5033579;28;20389;-71
2021/08/24 12:22:40;;;;;;;0.40;0.20;;;23.00;91.60;;;;;;5032609;28;20454;-72
2021/08/24 12:25:30;;;;;;;0.40;0.22;;;23.30;91.70;;;;;;5033352;28;20391;-71
2021/08/24 12:28:01;;;;;;;0.40;0.25;;;23.10;90.50;;;;;;5033525;28;20723;-71
2021/08/24 12:30:31;;;;;;;0.40;0.30;;;23.10;91.80;;;;;;5032529;28;20379;-71
2021/08/24 12:32:56;;;;;;;0.40;0.30;;;23.00;90.70;;;;;;5033206;28;20383;-71
2021/08/24 12:35:37;;;;;;;0.40;0.20;;;23.10;93.10;;;;;;5032420;28;20385;-71
2021/08/24 12:38:04;;;;;;;0.40;0.30;;;22.80;92.20;;;;;;5031855;28;21040;-72
2021/08/24 12:40:51;;;;;;;0.40;0.20;;;22.70;92.60;;;;;;5013394;28;20407;-72
2021/08/24 12:43:40;;;;;;;0.40;0.30;;;22.40;91.90;;;;;;5032850;28;20376;-71
2021/08/24 12:46:17;;;;;;;0.40;0.20;;;22.10;91.50;;;;;;5033293;28;20403;-72
2021/08/24 12:49:21;;;;;;;0.40;0.22;;;22.30;93.10;;;;;;5032142;28;20395;-72
2021/08/24 12:52:07;;;;;;;0.40;0.30;;;22.20;92.60;;;;;;5032680;28;20871;-72
2021/08/24 12:54:47;;;;;;;0.40;0.20;;;21.90;92.60;;;;;;5032286;28;20392;-72
2021/08/24 12:57:16;;;;;;;0.40;0.20;;;22.00;92.60;;;;;;5032437;28;20384;-71
2021/08/24 12:59:45;;;;;;;0.40;0.30;;;21.90;93.00;;;;;;5031410;28;20736;-72
2021/08/24 13:02:29;;;;;;;0.40;0.30;;;22.20;93.60;;;;;;5032986;28;20375;-72
2021/08/24 13:05:15;;;;;;;0.40;0.20;;;22.30;93.80;;;;;;5032901;28;20391;-72
2021/08/24 13:08:00;;;;;;;0.40;0.30;;;22.40;92.80;;;;;;5032399;28;20407;-72
2021/08/24 13:10:37;;;;;;;0.40;0.20;;;22.10;92.10;;;;;;5032068;28;20371;-72